sensor_id;sensor_type;location;lat;lon;timestamp;P1;durP1;ratioP1;P2;durP2;ratioP2
82744;SDS011;72484;50.004;14.356;2023-12-14T00:01:33;27.40;;;17.50;;
82744;SDS011;72484;50.004;14.356;2023-12-14T00:05:31;23.70;;;16.00;;
82744;SDS011;72484;50.004;14.356;2023-12-14T00:09:50;24.20;;;16.90;;
82744;SDS011;72484;50.004;14.356;2023-12-14T00:13:07;25.00;;;17.10;;
82744;SDS011;72484;50.004;14.356;2023-12-14T00:17:25;23.70;;;16.10;;
82744;SDS011;72484;50.004;14.356;2023-12-14T00:20:42;23.00;;;16.30;;
82744;SDS011;72484;50.004;14.356;2023-12-14T00:24:39;23.20;;;16.30;;
82744;SDS011;72484;50.004;14.356;2023-12-14T00:28:37;26.50;;;18.80;;
82744;SDS011;72484;50.004;14.356;2023-12-14T00:47:24;21.00;;;14.40;;
82744;SDS011;72484;50.004;14.356;2023-12-14T00:50:40;21.80;;;14.80;;
82744;SDS011;72484;50.004;14.356;2023-12-14T00:53:59;21.00;;;14.50;;
82744;SDS011;72484;50.004;14.356;2023-12-14T00:57:56;20.10;;;14.00;;
82744;SDS011;72484;50.004;14.356;2023-12-14T01:01:54;20.50;;;14.20;;
82744;SDS011;72484;50.004;14.356;2023-12-14T01:05:52;20.90;;;14.50;;
82744;SDS011;72484;50.004;14.356;2023-12-14T01:09:50;22.90;;;15.00;;
82744;SDS011;72484;50.004;14.356;2023-12-14T01:14:05;23.10;;;16.20;;
82744;SDS011;72484;50.004;14.356;2023-12-14T01:17:25;21.90;;;15.10;;
82744;SDS011;72484;50.004;14.356;2023-12-14T01:21:22;20.80;;;14.40;;
82744;SDS011;72484;50.004;14.356;2023-12-14T01:25:20;20.80;;;14.20;;
82744;SDS011;72484;50.004;14.356;2023-12-14T01:29:17;20.60;;;13.60;;
82744;SDS011;72484;50.004;14.356;2023-12-14T01:33:15;21.70;;;14.10;;
82744;SDS011;72484;50.004;14.356;2023-12-14T01:37:11;18.80;;;13.00;;
82744;SDS011;72484;50.004;14.356;2023-12-14T01:41:12;19.00;;;13.20;;
82744;SDS011;72484;50.004;14.356;2023-12-14T01:45:10;19.30;;;13.10;;
82744;SDS011;72484;50.004;14.356;2023-12-14T01:49:09;20.50;;;13.70;;
82744;SDS011;72484;50.004;14.356;2023-12-14T01:53:06;19.50;;;13.30;;
82744;SDS011;72484;50.004;14.356;2023-12-14T01:57:04;19.80;;;13.30;;
82744;SDS011;72484;50.004;14.356;2023-12-14T02:01:03;18.90;;;13.20;;
82744;SDS011;72484;50.004;14.356;2023-12-14T02:05:26;20.80;;;14.40;;
82744;SDS011;72484;50.004;14.356;2023-12-14T02:08:45;20.40;;;14.00;;
82744;SDS011;72484;50.004;14.356;2023-12-14T02:12:43;21.60;;;14.10;;
82744;SDS011;72484;50.004;14.356;2023-12-14T02:16:40;20.10;;;14.30;;
82744;SDS011;72484;50.004;14.356;2023-12-14T02:20:41;23.30;;;15.30;;
82744;SDS011;72484;50.004;14.356;2023-12-14T02:24:37;23.50;;;16.10;;
82744;SDS011;72484;50.004;14.356;2023-12-14T02:28:35;44.30;;;16.90;;
82744;SDS011;72484;50.004;14.356;2023-12-14T02:32:32;58.20;;;17.10;;
82744;SDS011;72484;50.004;14.356;2023-12-14T02:36:29;44.60;;;15.30;;
82744;SDS011;72484;50.004;14.356;2023-12-14T02:40:26;50.10;;;15.20;;
82744;SDS011;72484;50.004;14.356;2023-12-14T02:44:23;37.60;;;15.00;;
82744;SDS011;72484;50.004;14.356;2023-12-14T02:48:41;35.40;;;14.40;;
82744;SDS011;72484;50.004;14.356;2023-12-14T02:51:58;41.30;;;14.40;;
82744;SDS011;72484;50.004;14.356;2023-12-14T02:55:56;33.90;;;14.10;;
82744;SDS011;72484;50.004;14.356;2023-12-14T02:59:57;28.40;;;14.60;;
82744;SDS011;72484;50.004;14.356;2023-12-14T03:03:54;23.50;;;13.50;;
82744;SDS011;72484;50.004;14.356;2023-12-14T03:07:51;25.20;;;14.40;;
82744;SDS011;72484;50.004;14.356;2023-12-14T03:11:49;21.50;;;12.90;;
82744;SDS011;72484;50.004;14.356;2023-12-14T03:16:08;19.30;;;12.90;;
82744;SDS011;72484;50.004;14.356;2023-12-14T03:20:11;18.90;;;12.80;;
82744;SDS011;72484;50.004;14.356;2023-12-14T03:24:08;17.90;;;12.00;;
82744;SDS011;72484;50.004;14.356;2023-12-14T03:28:05;17.80;;;12.20;;
82744;SDS011;72484;50.004;14.356;2023-12-14T03:32:04;19.90;;;13.30;;
82744;SDS011;72484;50.004;14.356;2023-12-14T03:36:05;18.90;;;12.20;;
82744;SDS011;72484;50.004;14.356;2023-12-14T03:40:21;19.20;;;13.00;;
82744;SDS011;72484;50.004;14.356;2023-12-14T03:43:41;19.40;;;12.90;;
82744;SDS011;72484;50.004;14.356;2023-12-14T03:47:38;19.50;;;12.20;;
82744;SDS011;72484;50.004;14.356;2023-12-14T03:51:36;20.40;;;13.40;;
82744;SDS011;72484;50.004;14.356;2023-12-14T03:55:33;21.20;;;14.30;;
82744;SDS011;72484;50.004;14.356;2023-12-14T03:59:31;22.60;;;14.60;;
82744;SDS011;72484;50.004;14.356;2023-12-14T04:03:28;23.00;;;15.40;;
82744;SDS011;72484;50.004;14.356;2023-12-14T04:07:26;25.50;;;15.30;;
82744;SDS011;72484;50.004;14.356;2023-12-14T04:11:23;27.00;;;16.00;;
82744;SDS011;72484;50.004;14.356;2023-12-14T04:15:21;28.50;;;16.00;;
82744;SDS011;72484;50.004;14.356;2023-12-14T04:19:18;29.00;;;16.30;;
82744;SDS011;72484;50.004;14.356;2023-12-14T04:23:16;29.00;;;16.20;;
82744;SDS011;72484;50.004;14.356;2023-12-14T04:27:14;40.20;;;16.30;;
82744;SDS011;72484;50.004;14.356;2023-12-14T04:31:12;38.00;;;17.00;;
82744;SDS011;72484;50.004;14.356;2023-12-14T04:35:09;33.30;;;16.10;;
82744;SDS011;72484;50.004;14.356;2023-12-14T04:39:06;36.40;;;15.50;;
82744;SDS011;72484;50.004;14.356;2023-12-14T04:43:04;43.40;;;15.40;;
82744;SDS011;72484;50.004;14.356;2023-12-14T04:47:01;45.90;;;16.40;;
82744;SDS011;72484;50.004;14.356;2023-12-14T04:50:59;38.50;;;16.00;;
82744;SDS011;72484;50.004;14.356;2023-12-14T04:54:56;41.80;;;16.30;;
82744;SDS011;72484;50.004;14.356;2023-12-14T04:58:53;34.60;;;16.30;;
82744;SDS011;72484;50.004;14.356;2023-12-14T05:02:50;32.80;;;16.20;;
82744;SDS011;72484;50.004;14.356;2023-12-14T05:06:48;23.30;;;15.00;;
82744;SDS011;72484;50.004;14.356;2023-12-14T05:10:45;22.30;;;14.80;;
82744;SDS011;72484;50.004;14.356;2023-12-14T05:14:42;20.90;;;14.50;;
82744;SDS011;72484;50.004;14.356;2023-12-14T05:18:40;20.20;;;14.40;;
82744;SDS011;72484;50.004;14.356;2023-12-14T05:22:37;20.90;;;14.00;;
82744;SDS011;72484;50.004;14.356;2023-12-14T05:26:34;20.80;;;14.40;;
82744;SDS011;72484;50.004;14.356;2023-12-14T05:30:31;22.30;;;14.80;;
82744;SDS011;72484;50.004;14.356;2023-12-14T05:34:29;20.70;;;14.30;;
82744;SDS011;72484;50.004;14.356;2023-12-14T05:38:26;20.20;;;14.20;;
82744;SDS011;72484;50.004;14.356;2023-12-14T05:42:23;20.90;;;13.90;;
82744;SDS011;72484;50.004;14.356;2023-12-14T05:46:22;21.30;;;14.70;;
82744;SDS011;72484;50.004;14.356;2023-12-14T05:50:19;20.80;;;14.20;;
82744;SDS011;72484;50.004;14.356;2023-12-14T05:54:17;19.10;;;13.40;;
82744;SDS011;72484;50.004;14.356;2023-12-14T05:58:15;18.40;;;13.00;;
82744;SDS011;72484;50.004;14.356;2023-12-14T06:02:16;18.90;;;12.90;;
82744;SDS011;72484;50.004;14.356;2023-12-14T06:06:13;18.50;;;12.40;;
82744;SDS011;72484;50.004;14.356;2023-12-14T06:10:14;17.90;;;12.90;;
82744;SDS011;72484;50.004;14.356;2023-12-14T06:14:12;17.30;;;11.90;;
82744;SDS011;72484;50.004;14.356;2023-12-14T06:18:13;18.20;;;12.20;;
82744;SDS011;72484;50.004;14.356;2023-12-14T06:22:10;18.80;;;12.60;;
82744;SDS011;72484;50.004;14.356;2023-12-14T06:26:08;16.70;;;11.90;;
82744;SDS011;72484;50.004;14.356;2023-12-14T06:30:08;17.00;;;12.20;;
82744;SDS011;72484;50.004;14.356;2023-12-14T06:34:08;18.60;;;13.50;;
82744;SDS011;72484;50.004;14.356;2023-12-14T06:38:06;17.80;;;12.80;;
82744;SDS011;72484;50.004;14.356;2023-12-14T06:42:04;21.10;;;14.20;;
82744;SDS011;72484;50.004;14.356;2023-12-14T06:46:03;21.10;;;14.90;;
82744;SDS011;72484;50.004;14.356;2023-12-14T06:50:01;20.20;;;13.70;;
82744;SDS011;72484;50.004;14.356;2023-12-14T06:54:00;19.30;;;13.40;;
82744;SDS011;72484;50.004;14.356;2023-12-14T06:57:58;21.80;;;14.00;;
82744;SDS011;72484;50.004;14.356;2023-12-14T07:01:55;26.50;;;14.70;;
82744;SDS011;72484;50.004;14.356;2023-12-14T07:05:53;28.30;;;15.00;;
82744;SDS011;72484;50.004;14.356;2023-12-14T07:09:50;28.50;;;14.00;;
82744;SDS011;72484;50.004;14.356;2023-12-14T07:13:47;24.00;;;14.80;;
82744;SDS011;72484;50.004;14.356;2023-12-14T07:17:44;38.40;;;15.20;;
82744;SDS011;72484;50.004;14.356;2023-12-14T07:21:42;23.70;;;15.30;;
82744;SDS011;72484;50.004;14.356;2023-12-14T07:25:38;27.80;;;15.00;;
82744;SDS011;72484;50.004;14.356;2023-12-14T07:29:36;29.80;;;13.70;;
82744;SDS011;72484;50.004;14.356;2023-12-14T07:33:33;30.10;;;13.60;;
82744;SDS011;72484;50.004;14.356;2023-12-14T07:37:30;28.90;;;15.10;;
82744;SDS011;72484;50.004;14.356;2023-12-14T07:41:30;31.60;;;14.10;;
82744;SDS011;72484;50.004;14.356;2023-12-14T07:45:28;20.90;;;12.80;;
82744;SDS011;72484;50.004;14.356;2023-12-14T07:49:25;18.70;;;12.70;;
82744;SDS011;72484;50.004;14.356;2023-12-14T07:53:23;27.10;;;13.00;;
82744;SDS011;72484;50.004;14.356;2023-12-14T07:57:20;24.70;;;18.10;;
82744;SDS011;72484;50.004;14.356;2023-12-14T08:01:18;20.20;;;14.90;;
82744;SDS011;72484;50.004;14.356;2023-12-14T08:05:16;21.40;;;13.20;;
82744;SDS011;72484;50.004;14.356;2023-12-14T08:09:20;24.50;;;13.50;;
82744;SDS011;72484;50.004;14.356;2023-12-14T08:13:17;23.40;;;12.80;;
82744;SDS011;72484;50.004;14.356;2023-12-14T08:17:14;30.60;;;12.40;;
82744;SDS011;72484;50.004;14.356;2023-12-14T08:21:12;28.90;;;12.60;;
82744;SDS011;72484;50.004;14.356;2023-12-14T08:25:12;16.40;;;11.40;;
82744;SDS011;72484;50.004;14.356;2023-12-14T08:29:13;17.90;;;12.10;;
82744;SDS011;72484;50.004;14.356;2023-12-14T08:33:10;19.40;;;11.80;;
82744;SDS011;72484;50.004;14.356;2023-12-14T08:37:07;20.20;;;10.90;;
82744;SDS011;72484;50.004;14.356;2023-12-14T08:41:05;17.30;;;11.30;;
82744;SDS011;72484;50.004;14.356;2023-12-14T08:45:02;17.40;;;10.80;;
82744;SDS011;72484;50.004;14.356;2023-12-14T08:49:03;16.50;;;10.80;;
82744;SDS011;72484;50.004;14.356;2023-12-14T08:53:00;31.70;;;11.20;;
82744;SDS011;72484;50.004;14.356;2023-12-14T08:57:00;20.80;;;10.70;;
82744;SDS011;72484;50.004;14.356;2023-12-14T09:00:57;22.50;;;11.30;;
82744;SDS011;72484;50.004;14.356;2023-12-14T09:04:55;15.90;;;10.20;;
82744;SDS011;72484;50.004;14.356;2023-12-14T09:08:52;17.00;;;10.70;;
82744;SDS011;72484;50.004;14.356;2023-12-14T09:12:49;27.30;;;12.20;;
82744;SDS011;72484;50.004;14.356;2023-12-14T09:16:46;26.50;;;11.50;;
82744;SDS011;72484;50.004;14.356;2023-12-14T09:20:44;49.50;;;12.90;;
82744;SDS011;72484;50.004;14.356;2023-12-14T09:24:41;102.30;;;15.70;;
82744;SDS011;72484;50.004;14.356;2023-12-14T09:28:39;120.60;;;17.40;;
82744;SDS011;72484;50.004;14.356;2023-12-14T09:32:36;52.80;;;13.30;;
82744;SDS011;72484;50.004;14.356;2023-12-14T09:36:35;20.00;;;12.20;;
82744;SDS011;72484;50.004;14.356;2023-12-14T09:40:31;20.80;;;12.40;;
82744;SDS011;72484;50.004;14.356;2023-12-14T09:44:30;21.90;;;11.90;;
82744;SDS011;72484;50.004;14.356;2023-12-14T09:48:28;17.70;;;10.10;;
82744;SDS011;72484;50.004;14.356;2023-12-14T09:52:27;19.80;;;10.90;;
82744;SDS011;72484;50.004;14.356;2023-12-14T09:56:24;21.80;;;10.20;;
82744;SDS011;72484;50.004;14.356;2023-12-14T10:04:35;15.40;;;9.50;;
82744;SDS011;72484;50.004;14.356;2023-12-14T10:08:33;15.20;;;9.40;;
82744;SDS011;72484;50.004;14.356;2023-12-14T10:12:30;15.90;;;9.50;;
82744;SDS011;72484;50.004;14.356;2023-12-14T10:16:31;24.30;;;11.10;;
82744;SDS011;72484;50.004;14.356;2023-12-14T10:20:29;37.50;;;12.10;;
82744;SDS011;72484;50.004;14.356;2023-12-14T10:24:26;93.00;;;17.40;;
82744;SDS011;72484;50.004;14.356;2023-12-14T10:28:26;55.50;;;12.50;;
82744;SDS011;72484;50.004;14.356;2023-12-14T10:32:24;12.90;;;6.70;;
82744;SDS011;72484;50.004;14.356;2023-12-14T10:36:21;13.70;;;6.60;;
82744;SDS011;72484;50.004;14.356;2023-12-14T10:40:24;11.10;;;5.40;;
82744;SDS011;72484;50.004;14.356;2023-12-14T10:44:25;9.40;;;5.10;;
82744;SDS011;72484;50.004;14.356;2023-12-14T10:48:24;9.60;;;5.60;;
82744;SDS011;72484;50.004;14.356;2023-12-14T10:52:22;9.20;;;4.90;;
82744;SDS011;72484;50.004;14.356;2023-12-14T10:56:20;9.80;;;5.00;;
82744;SDS011;72484;50.004;14.356;2023-12-14T11:00:18;9.70;;;5.30;;
82744;SDS011;72484;50.004;14.356;2023-12-14T11:04:16;8.90;;;4.90;;
82744;SDS011;72484;50.004;14.356;2023-12-14T11:08:13;10.40;;;5.00;;
82744;SDS011;72484;50.004;14.356;2023-12-14T11:12:12;9.10;;;4.70;;
82744;SDS011;72484;50.004;14.356;2023-12-14T11:16:09;8.70;;;4.60;;
82744;SDS011;72484;50.004;14.356;2023-12-14T11:24:21;8.50;;;4.30;;
82744;SDS011;72484;50.004;14.356;2023-12-14T11:28:20;8.80;;;4.90;;
82744;SDS011;72484;50.004;14.356;2023-12-14T11:32:18;14.20;;;4.70;;
82744;SDS011;72484;50.004;14.356;2023-12-14T11:36:16;9.80;;;4.50;;
82744;SDS011;72484;50.004;14.356;2023-12-14T11:40:13;14.20;;;3.70;;
82744;SDS011;72484;50.004;14.356;2023-12-14T11:44:24;21.90;;;4.10;;
82744;SDS011;72484;50.004;14.356;2023-12-14T11:48:25;7.30;;;2.70;;
82744;SDS011;72484;50.004;14.356;2023-12-14T11:52:22;249.80;;;25.60;;
82744;SDS011;72484;50.004;14.356;2023-12-14T11:56:20;6.80;;;2.70;;
82744;SDS011;72484;50.004;14.356;2023-12-14T12:00:21;24.80;;;3.80;;
82744;SDS011;72484;50.004;14.356;2023-12-14T12:04:20;6.70;;;2.20;;
82744;SDS011;72484;50.004;14.356;2023-12-14T12:08:18;7.00;;;2.10;;
82744;SDS011;72484;50.004;14.356;2023-12-14T12:12:16;6.40;;;2.40;;
82744;SDS011;72484;50.004;14.356;2023-12-14T12:16:14;35.80;;;5.00;;
82744;SDS011;72484;50.004;14.356;2023-12-14T12:20:14;6.10;;;2.20;;
82744;SDS011;72484;50.004;14.356;2023-12-14T12:24:12;6.40;;;2.50;;
82744;SDS011;72484;50.004;14.356;2023-12-14T12:28:09;7.00;;;2.50;;
82744;SDS011;72484;50.004;14.356;2023-12-14T12:32:06;7.00;;;2.80;;
82744;SDS011;72484;50.004;14.356;2023-12-14T12:36:03;8.70;;;2.40;;
82744;SDS011;72484;50.004;14.356;2023-12-14T12:40:04;9.00;;;4.50;;
82744;SDS011;72484;50.004;14.356;2023-12-14T12:44:02;6.50;;;2.50;;
82744;SDS011;72484;50.004;14.356;2023-12-14T12:48:05;10.60;;;2.80;;
82744;SDS011;72484;50.004;14.356;2023-12-14T12:52:03;7.00;;;2.40;;
82744;SDS011;72484;50.004;14.356;2023-12-14T12:56:02;7.60;;;2.50;;
82744;SDS011;72484;50.004;14.356;2023-12-14T13:00:00;6.50;;;2.20;;
82744;SDS011;72484;50.004;14.356;2023-12-14T13:04:02;6.70;;;2.10;;
82744;SDS011;72484;50.004;14.356;2023-12-14T13:07:59;8.20;;;2.70;;
82744;SDS011;72484;50.004;14.356;2023-12-14T13:11:56;7.30;;;2.70;;
82744;SDS011;72484;50.004;14.356;2023-12-14T13:15:53;7.40;;;2.90;;
82744;SDS011;72484;50.004;14.356;2023-12-14T13:19:50;9.40;;;3.50;;
82744;SDS011;72484;50.004;14.356;2023-12-14T13:23:50;7.40;;;3.10;;
82744;SDS011;72484;50.004;14.356;2023-12-14T13:27:48;6.90;;;2.60;;
82744;SDS011;72484;50.004;14.356;2023-12-14T13:31:46;13.50;;;2.70;;
82744;SDS011;72484;50.004;14.356;2023-12-14T13:35:44;7.50;;;2.90;;
82744;SDS011;72484;50.004;14.356;2023-12-14T13:39:45;7.80;;;2.90;;
82744;SDS011;72484;50.004;14.356;2023-12-14T13:43:46;9.40;;;3.90;;
82744;SDS011;72484;50.004;14.356;2023-12-14T13:47:43;13.40;;;4.00;;
82744;SDS011;72484;50.004;14.356;2023-12-14T13:51:41;8.40;;;3.60;;
82744;SDS011;72484;50.004;14.356;2023-12-14T13:55:38;9.40;;;4.10;;
82744;SDS011;72484;50.004;14.356;2023-12-14T13:59:35;10.50;;;3.70;;
82744;SDS011;72484;50.004;14.356;2023-12-14T14:03:33;9.50;;;3.30;;
82744;SDS011;72484;50.004;14.356;2023-12-14T14:07:32;6.50;;;2.40;;
82744;SDS011;72484;50.004;14.356;2023-12-14T14:11:29;8.90;;;3.50;;
82744;SDS011;72484;50.004;14.356;2023-12-14T14:15:27;8.90;;;3.70;;
82744;SDS011;72484;50.004;14.356;2023-12-14T14:19:24;12.10;;;6.40;;
82744;SDS011;72484;50.004;14.356;2023-12-14T14:23:21;8.00;;;3.50;;
82744;SDS011;72484;50.004;14.356;2023-12-14T14:27:18;8.90;;;4.20;;
82744;SDS011;72484;50.004;14.356;2023-12-14T14:31:16;19.50;;;8.80;;
82744;SDS011;72484;50.004;14.356;2023-12-14T14:35:13;10.00;;;3.90;;
82744;SDS011;72484;50.004;14.356;2023-12-14T14:39:11;9.60;;;3.80;;
82744;SDS011;72484;50.004;14.356;2023-12-14T14:43:11;7.60;;;2.90;;
82744;SDS011;72484;50.004;14.356;2023-12-14T14:47:08;10.50;;;3.30;;
82744;SDS011;72484;50.004;14.356;2023-12-14T14:51:07;8.70;;;3.00;;
82744;SDS011;72484;50.004;14.356;2023-12-14T14:55:06;7.80;;;3.10;;
82744;SDS011;72484;50.004;14.356;2023-12-14T14:59:06;9.00;;;4.10;;
82744;SDS011;72484;50.004;14.356;2023-12-14T15:03:05;9.00;;;3.60;;
82744;SDS011;72484;50.004;14.356;2023-12-14T15:07:03;10.30;;;4.60;;
82744;SDS011;72484;50.004;14.356;2023-12-14T15:11:02;8.60;;;3.60;;
82744;SDS011;72484;50.004;14.356;2023-12-14T15:15:04;8.70;;;4.10;;
82744;SDS011;72484;50.004;14.356;2023-12-14T15:19:02;10.00;;;5.00;;
82744;SDS011;72484;50.004;14.356;2023-12-14T15:22:59;11.40;;;6.00;;
82744;SDS011;72484;50.004;14.356;2023-12-14T15:27:02;14.30;;;6.30;;
82744;SDS011;72484;50.004;14.356;2023-12-14T15:31:00;8.50;;;3.80;;
82744;SDS011;72484;50.004;14.356;2023-12-14T15:34:57;7.70;;;3.40;;
82744;SDS011;72484;50.004;14.356;2023-12-14T15:38:54;8.60;;;3.90;;
82744;SDS011;72484;50.004;14.356;2023-12-14T15:42:51;9.80;;;4.30;;
82744;SDS011;72484;50.004;14.356;2023-12-14T15:46:49;9.90;;;5.30;;
82744;SDS011;72484;50.004;14.356;2023-12-14T15:50:47;9.40;;;4.70;;
82744;SDS011;72484;50.004;14.356;2023-12-14T15:54:44;10.60;;;5.90;;
82744;SDS011;72484;50.004;14.356;2023-12-14T15:58:42;10.80;;;6.10;;
82744;SDS011;72484;50.004;14.356;2023-12-14T16:02:43;12.10;;;6.90;;
82744;SDS011;72484;50.004;14.356;2023-12-14T16:06:40;12.70;;;7.60;;
82744;SDS011;72484;50.004;14.356;2023-12-14T16:10:37;11.20;;;5.80;;
82744;SDS011;72484;50.004;14.356;2023-12-14T16:14:39;9.70;;;5.40;;
82744;SDS011;72484;50.004;14.356;2023-12-14T16:18:35;12.70;;;8.40;;
82744;SDS011;72484;50.004;14.356;2023-12-14T16:22:32;12.40;;;7.60;;
82744;SDS011;72484;50.004;14.356;2023-12-14T16:26:30;11.50;;;7.00;;
82744;SDS011;72484;50.004;14.356;2023-12-14T16:30:32;9.30;;;4.60;;
82744;SDS011;72484;50.004;14.356;2023-12-14T16:34:33;10.00;;;5.40;;
82744;SDS011;72484;50.004;14.356;2023-12-14T16:38:30;8.50;;;4.00;;
82744;SDS011;72484;50.004;14.356;2023-12-14T16:42:28;8.40;;;3.80;;
82744;SDS011;72484;50.004;14.356;2023-12-14T16:46:25;7.20;;;3.00;;
82744;SDS011;72484;50.004;14.356;2023-12-14T16:50:22;8.60;;;4.50;;
82744;SDS011;72484;50.004;14.356;2023-12-14T16:54:19;8.40;;;3.90;;
82744;SDS011;72484;50.004;14.356;2023-12-14T16:58:17;10.40;;;5.10;;
82744;SDS011;72484;50.004;14.356;2023-12-14T17:02:14;10.10;;;4.10;;
82744;SDS011;72484;50.004;14.356;2023-12-14T17:06:12;9.50;;;4.80;;
82744;SDS011;72484;50.004;14.356;2023-12-14T17:10:14;9.20;;;4.50;;
82744;SDS011;72484;50.004;14.356;2023-12-14T17:14:11;8.60;;;3.50;;
82744;SDS011;72484;50.004;14.356;2023-12-14T17:18:11;8.50;;;4.20;;
82744;SDS011;72484;50.004;14.356;2023-12-14T17:22:09;9.00;;;5.80;;
82744;SDS011;72484;50.004;14.356;2023-12-14T17:26:06;8.10;;;4.00;;
82744;SDS011;72484;50.004;14.356;2023-12-14T17:30:05;11.20;;;6.20;;
82744;SDS011;72484;50.004;14.356;2023-12-14T17:34:04;8.30;;;3.90;;
82744;SDS011;72484;50.004;14.356;2023-12-14T17:38:02;8.40;;;4.20;;
82744;SDS011;72484;50.004;14.356;2023-12-14T17:41:59;9.20;;;5.00;;
82744;SDS011;72484;50.004;14.356;2023-12-14T17:45:56;9.60;;;4.70;;
82744;SDS011;72484;50.004;14.356;2023-12-14T17:49:57;8.30;;;4.20;;
82744;SDS011;72484;50.004;14.356;2023-12-14T17:53:56;9.50;;;4.80;;
82744;SDS011;72484;50.004;14.356;2023-12-14T17:57:53;7.80;;;4.30;;
82744;SDS011;72484;50.004;14.356;2023-12-14T18:01:51;12.70;;;6.60;;
82744;SDS011;72484;50.004;14.356;2023-12-14T18:05:51;11.30;;;5.50;;
82744;SDS011;72484;50.004;14.356;2023-12-14T18:09:48;34.30;;;16.70;;
82744;SDS011;72484;50.004;14.356;2023-12-14T18:13:45;8.80;;;4.40;;
82744;SDS011;72484;50.004;14.356;2023-12-14T18:17:42;6.30;;;2.30;;
82744;SDS011;72484;50.004;14.356;2023-12-14T18:21:40;7.00;;;3.00;;
82744;SDS011;72484;50.004;14.356;2023-12-14T18:25:42;6.80;;;2.30;;
82744;SDS011;72484;50.004;14.356;2023-12-14T18:29:46;8.20;;;3.40;;
82744;SDS011;72484;50.004;14.356;2023-12-14T18:33:58;8.30;;;3.50;;
82744;SDS011;72484;50.004;14.356;2023-12-14T18:47:51;7.90;;;3.60;;
82744;SDS011;72484;50.004;14.356;2023-12-14T18:50:48;11.30;;;6.90;;
82744;SDS011;72484;50.004;14.356;2023-12-14T18:54:50;8.60;;;4.00;;
82744;SDS011;72484;50.004;14.356;2023-12-14T18:58:23;7.50;;;3.30;;
82744;SDS011;72484;50.004;14.356;2023-12-14T19:02:21;8.60;;;3.70;;
82744;SDS011;72484;50.004;14.356;2023-12-14T19:06:21;8.30;;;3.90;;
82744;SDS011;72484;50.004;14.356;2023-12-14T19:10:18;7.20;;;2.80;;
82744;SDS011;72484;50.004;14.356;2023-12-14T19:14:16;7.40;;;3.10;;
82744;SDS011;72484;50.004;14.356;2023-12-14T19:18:13;7.00;;;2.70;;
82744;SDS011;72484;50.004;14.356;2023-12-14T19:22:10;6.50;;;2.60;;
82744;SDS011;72484;50.004;14.356;2023-12-14T19:26:14;7.80;;;3.60;;
82744;SDS011;72484;50.004;14.356;2023-12-14T19:30:13;8.40;;;4.00;;
82744;SDS011;72484;50.004;14.356;2023-12-14T19:34:11;8.80;;;4.10;;
82744;SDS011;72484;50.004;14.356;2023-12-14T19:38:07;7.60;;;3.40;;
82744;SDS011;72484;50.004;14.356;2023-12-14T19:42:05;7.90;;;3.60;;
82744;SDS011;72484;50.004;14.356;2023-12-14T19:46:02;7.80;;;3.60;;
82744;SDS011;72484;50.004;14.356;2023-12-14T19:50:02;6.80;;;2.80;;
82744;SDS011;72484;50.004;14.356;2023-12-14T19:54:00;9.20;;;3.90;;
82744;SDS011;72484;50.004;14.356;2023-12-14T19:57:57;7.00;;;3.50;;
82744;SDS011;72484;50.004;14.356;2023-12-14T20:01:55;7.90;;;3.50;;
82744;SDS011;72484;50.004;14.356;2023-12-14T20:05:52;6.90;;;3.30;;
82744;SDS011;72484;50.004;14.356;2023-12-14T20:09:49;8.10;;;4.30;;
82744;SDS011;72484;50.004;14.356;2023-12-14T20:13:48;8.60;;;4.50;;
82744;SDS011;72484;50.004;14.356;2023-12-14T20:17:45;11.60;;;8.20;;
82744;SDS011;72484;50.004;14.356;2023-12-14T20:21:42;8.40;;;5.00;;
82744;SDS011;72484;50.004;14.356;2023-12-14T20:25:39;7.60;;;4.00;;
82744;SDS011;72484;50.004;14.356;2023-12-14T20:29:36;7.90;;;4.30;;
82744;SDS011;72484;50.004;14.356;2023-12-14T20:33:33;7.70;;;3.90;;
82744;SDS011;72484;50.004;14.356;2023-12-14T20:37:34;8.10;;;4.10;;
82744;SDS011;72484;50.004;14.356;2023-12-14T20:41:31;7.90;;;3.40;;
82744;SDS011;72484;50.004;14.356;2023-12-14T20:45:29;8.70;;;3.90;;
82744;SDS011;72484;50.004;14.356;2023-12-14T20:49:26;7.10;;;3.70;;
82744;SDS011;72484;50.004;14.356;2023-12-14T20:53:24;7.40;;;3.00;;
82744;SDS011;72484;50.004;14.356;2023-12-14T20:57:24;6.80;;;3.60;;
82744;SDS011;72484;50.004;14.356;2023-12-14T21:01:21;8.60;;;4.80;;
82744;SDS011;72484;50.004;14.356;2023-12-14T21:05:18;7.80;;;3.90;;
82744;SDS011;72484;50.004;14.356;2023-12-14T21:09:15;7.90;;;3.50;;
82744;SDS011;72484;50.004;14.356;2023-12-14T21:13:13;7.80;;;4.00;;
82744;SDS011;72484;50.004;14.356;2023-12-14T21:17:11;7.50;;;3.40;;
82744;SDS011;72484;50.004;14.356;2023-12-14T21:21:08;7.50;;;3.90;;
82744;SDS011;72484;50.004;14.356;2023-12-14T21:25:07;7.70;;;3.80;;
82744;SDS011;72484;50.004;14.356;2023-12-14T21:29:08;8.00;;;4.10;;
82744;SDS011;72484;50.004;14.356;2023-12-14T21:33:06;7.70;;;3.60;;
82744;SDS011;72484;50.004;14.356;2023-12-14T21:37:03;8.60;;;4.50;;
82744;SDS011;72484;50.004;14.356;2023-12-14T21:41:01;9.70;;;4.60;;
82744;SDS011;72484;50.004;14.356;2023-12-14T21:45:03;9.00;;;4.40;;
82744;SDS011;72484;50.004;14.356;2023-12-14T21:49:03;10.70;;;5.20;;
82744;SDS011;72484;50.004;14.356;2023-12-14T21:53:01;9.70;;;5.40;;
82744;SDS011;72484;50.004;14.356;2023-12-14T21:56:59;11.70;;;5.90;;
82744;SDS011;72484;50.004;14.356;2023-12-14T22:00:57;10.70;;;5.70;;
82744;SDS011;72484;50.004;14.356;2023-12-14T22:04:54;16.40;;;8.60;;
82744;SDS011;72484;50.004;14.356;2023-12-14T22:08:55;16.50;;;8.40;;
82744;SDS011;72484;50.004;14.356;2023-12-14T22:12:53;18.60;;;9.10;;
82744;SDS011;72484;50.004;14.356;2023-12-14T22:16:50;10.80;;;5.10;;
82744;SDS011;72484;50.004;14.356;2023-12-14T22:20:48;9.40;;;4.50;;
82744;SDS011;72484;50.004;14.356;2023-12-14T22:24:45;8.90;;;4.70;;
82744;SDS011;72484;50.004;14.356;2023-12-14T22:28:43;8.70;;;4.60;;
82744;SDS011;72484;50.004;14.356;2023-12-14T22:32:41;8.60;;;4.80;;
82744;SDS011;72484;50.004;14.356;2023-12-14T22:36:38;9.00;;;4.90;;
82744;SDS011;72484;50.004;14.356;2023-12-14T22:40:37;9.20;;;4.50;;
82744;SDS011;72484;50.004;14.356;2023-12-14T22:44:35;8.60;;;4.60;;
82744;SDS011;72484;50.004;14.356;2023-12-14T22:48:33;8.90;;;4.90;;
82744;SDS011;72484;50.004;14.356;2023-12-14T22:52:30;9.30;;;4.90;;
82744;SDS011;72484;50.004;14.356;2023-12-14T22:56:28;8.30;;;4.50;;
82744;SDS011;72484;50.004;14.356;2023-12-14T23:00:26;9.20;;;4.50;;
82744;SDS011;72484;50.004;14.356;2023-12-14T23:04:26;10.00;;;5.00;;
82744;SDS011;72484;50.004;14.356;2023-12-14T23:08:25;9.40;;;4.90;;
82744;SDS011;72484;50.004;14.356;2023-12-14T23:12:25;9.40;;;4.70;;
82744;SDS011;72484;50.004;14.356;2023-12-14T23:16:26;9.80;;;4.90;;
82744;SDS011;72484;50.004;14.356;2023-12-14T23:20:23;10.30;;;5.30;;
82744;SDS011;72484;50.004;14.356;2023-12-14T23:24:21;9.60;;;5.20;;
82744;SDS011;72484;50.004;14.356;2023-12-14T23:28:18;9.50;;;5.00;;
82744;SDS011;72484;50.004;14.356;2023-12-14T23:32:17;8.50;;;4.40;;
82744;SDS011;72484;50.004;14.356;2023-12-14T23:36:15;8.50;;;4.60;;
82744;SDS011;72484;50.004;14.356;2023-12-14T23:40:12;8.80;;;4.70;;